Time;durP1;ratioP1;P1;durP2;ratioP2;P2;SDS_P1;SDS_P2;PMS_P1;PMS_P2;Temp;Humidity;BMP_temperature;BMP_pressure;BME280_temperature;BME280_humidity;BME280_pressure;Samples;Min_cycle;Max_cycle;Signal;HPM_P1;HPM_P2
2022/05/27 00:01:45;;;;;;;4.00;3.17;;;14.50;99.90;;;;;;5013455;28;20041;-74
2022/05/27 00:04:11;;;;;;;7.13;3.30;;;14.60;99.90;;;;;;5022484;28;20025;-75
2022/05/27 00:06:37;;;;;;;14.25;3.92;;;14.70;99.90;;;;;;5040079;28;20468;-74
2022/05/27 00:09:03;;;;;;;8.82;3.70;;;14.70;99.90;;;;;;5022281;28;20542;-74
2022/05/27 00:11:29;;;;;;;6.20;3.30;;;14.80;99.90;;;;;;5039924;28;20021;-74
2022/05/27 00:13:55;;;;;;;6.40;2.95;;;14.80;99.90;;;;;;5040137;28;20102;-73
2022/05/27 00:16:21;;;;;;;10.45;4.20;;;14.90;99.90;;;;;;5022063;28;20022;-74
2022/05/27 00:18:47;;;;;;;6.20;3.17;;;14.90;99.90;;;;;;5022205;28;20033;-74
2022/05/27 00:21:13;;;;;;;8.50;3.10;;;14.90;99.90;;;;;;5022174;28;20026;-74
2022/05/27 00:23:40;;;;;;;6.47;3.80;;;15.00;99.90;;;;;;5022146;28;20025;-74
2022/05/27 00:26:07;;;;;;;7.38;3.72;;;15.00;99.90;;;;;;5039845;28;20041;-74
2022/05/27 00:28:33;;;;;;;5.10;3.53;;;15.00;99.90;;;;;;5039892;28;20063;-74
2022/05/27 00:30:59;;;;;;;6.57;3.10;;;15.00;99.90;;;;;;5039619;28;20033;-75
2022/05/27 00:33:24;;;;;;;4.93;2.97;;;14.90;99.90;;;;;;5021985;28;20129;-74
2022/05/27 00:35:51;;;;;;;5.50;3.53;;;14.90;99.90;;;;;;5039801;28;20021;-75
2022/05/27 00:38:18;;;;;;;6.45;3.53;;;14.90;99.90;;;;;;5021796;28;20101;-74
2022/05/27 00:40:46;;;;;;;7.63;3.65;;;14.90;99.90;;;;;;5025564;28;20436;-74
2022/05/27 00:43:12;;;;;;;6.65;3.13;;;14.90;99.90;;;;;;5039201;28;20474;-75
2022/05/27 00:45:41;;;;;;;5.50;3.17;;;14.90;99.90;;;;;;5039579;28;20420;-74
2022/05/27 00:48:12;;;;;;;6.00;3.92;;;14.80;99.90;;;;;;5039278;28;20041;-74
2022/05/27 00:50:42;;;;;;;6.45;4.57;;;14.80;99.90;;;;;;5038627;28;20536;-74
2022/05/27 00:53:10;;;;;;;10.18;6.20;;;14.70;99.90;;;;;;5021483;28;20025;-74
2022/05/27 00:55:49;;;;;;;8.98;5.93;;;14.70;99.90;;;;;;5021574;28;20022;-74
2022/05/27 00:58:24;;;;;;;8.70;5.93;;;14.60;99.90;;;;;;5021106;28;20026;-74
2022/05/27 01:00:50;;;;;;;9.98;5.20;;;14.60;99.90;;;;;;5039221;28;20477;-74
2022/05/27 01:03:18;;;;;;;12.02;4.63;;;14.50;99.90;;;;;;5039073;28;20029;-74
2022/05/27 01:05:45;;;;;;;6.45;4.32;;;14.50;99.90;;;;;;5039211;28;20029;-74
2022/05/27 01:08:14;;;;;;;8.05;5.22;;;14.50;99.90;;;;;;5039031;28;20014;-74
2022/05/27 01:10:54;;;;;;;6.80;4.45;;;14.50;99.90;;;;;;5039128;28;20038;-74
2022/05/27 01:13:54;;;;;;;8.48;4.97;;;14.50;99.90;;;;;;5020980;28;20485;-73
2022/05/27 01:16:45;;;;;;;12.02;5.38;;;14.50;99.90;;;;;;5020228;28;20025;-74
2022/05/27 01:22:15;;;;;;;7.25;5.47;;;14.60;99.90;;;;;;5038914;28;19912;-73
2022/05/27 01:24:50;;;;;;;11.70;6.43;;;14.50;99.90;;;;;;5038891;28;20477;-75
2022/05/27 01:27:29;;;;;;;9.93;6.68;;;14.60;99.90;;;;;;5020602;28;20025;-75
2022/05/27 01:30:20;;;;;;;13.15;6.38;;;14.60;99.90;;;;;;5038683;28;20021;-74
2022/05/27 01:33:10;;;;;;;8.95;5.65;;;14.60;99.90;;;;;;5020996;28;20107;-74
2022/05/27 01:36:05;;;;;;;5.23;4.30;;;14.70;99.90;;;;;;5038555;28;20025;-74
2022/05/27 01:38:49;;;;;;;8.57;5.28;;;14.70;99.90;;;;;;5038406;28;20363;-74
2022/05/27 01:41:27;;;;;;;8.18;4.43;;;14.80;99.90;;;;;;5038507;28;20065;-75
2022/05/27 01:44:03;;;;;;;9.63;4.50;;;14.80;99.90;;;;;;5038200;28;20017;-74
2022/05/27 01:46:35;;;;;;;4.97;3.85;;;14.80;99.90;;;;;;5020333;28;20100;-75
2022/05/27 01:49:04;;;;;;;5.50;3.45;;;14.80;99.90;;;;;;5020507;28;20118;-75
2022/05/27 01:51:54;;;;;;;5.63;4.00;;;14.80;99.90;;;;;;5020598;28;20125;-74
2022/05/27 01:54:32;;;;;;;3.83;3.22;;;14.90;99.90;;;;;;5038335;28;20022;-74
2022/05/27 01:57:10;;;;;;;5.75;3.60;;;14.90;99.90;;;;;;5037861;28;20036;-73
2022/05/27 02:00:00;;;;;;;7.13;3.35;;;14.90;99.90;;;;;;5037970;28;20033;-75
2022/05/27 02:02:29;;;;;;;11.50;3.67;;;14.90;99.90;;;;;;5038113;28;20053;-75
2022/05/27 02:05:09;;;;;;;5.80;3.55;;;14.80;99.90;;;;;;5020139;28;20025;-74
2022/05/27 02:07:38;;;;;;;6.28;4.00;;;14.80;99.90;;;;;;5037962;28;20164;-73
2022/05/27 02:10:09;;;;;;;5.88;3.88;;;14.80;99.90;;;;;;5037919;28;20029;-74
2022/05/27 02:12:47;;;;;;;12.43;4.03;;;14.90;99.90;;;;;;5037611;28;20022;-74
2022/05/27 02:15:26;;;;;;;6.90;3.72;;;14.80;99.90;;;;;;5037670;28;20092;-75
2022/05/27 02:18:01;;;;;;;7.38;3.70;;;14.80;99.90;;;;;;5037757;28;20029;-75
2022/05/27 02:20:44;;;;;;;7.93;3.90;;;14.80;99.90;;;;;;5019936;28;20490;-74
2022/05/27 02:23:21;;;;;;;5.95;3.20;;;14.80;99.90;;;;;;5037825;28;20390;-74
2022/05/27 02:25:51;;;;;;;6.35;3.65;;;14.80;99.90;;;;;;5037587;28;20029;-74
2022/05/27 02:28:23;;;;;;;5.07;3.63;;;14.80;99.90;;;;;;5020348;28;20021;-74
2022/05/27 02:30:54;;;;;;;5.85;3.83;;;14.80;99.90;;;;;;5037243;28;20032;-74
2022/05/27 02:36:16;;;;;;;4.63;3.30;;;14.80;99.90;;;;;;5037534;28;20127;-74
2022/05/27 02:38:42;;;;;;;3.88;3.00;;;14.80;99.90;;;;;;5019723;28;20381;-74
2022/05/27 02:41:23;;;;;;;6.93;3.65;;;14.80;99.90;;;;;;5019339;28;20025;-75
2022/05/27 02:43:51;;;;;;;;;;;14.80;99.90;;;;;;5019789;28;20485;-75
2022/05/27 02:46:31;;;;;;;6.07;3.78;;;14.80;99.90;;;;;;5037197;28;20704;-75
2022/05/27 02:49:00;;;;;;;11.70;4.00;;;14.80;99.90;;;;;;5037372;28;20056;-75
2022/05/27 02:52:04;;;;;;;6.80;3.80;;;14.80;99.90;;;;;;5037063;28;20291;-75
2022/05/27 02:54:52;;;;;;;6.22;3.25;;;14.80;99.90;;;;;;5037252;28;20025;-75
2022/05/27 02:57:47;;;;;;;6.80;3.45;;;14.80;99.90;;;;;;5037340;28;20100;-75
2022/05/27 03:00:20;;;;;;;4.60;3.10;;;14.80;99.90;;;;;;5037249;28;20025;-74
2022/05/27 03:02:46;;;;;;;6.72;4.32;;;14.80;99.90;;;;;;5019216;28;20035;-75
2022/05/27 03:05:14;;;;;;;4.15;3.17;;;14.80;99.90;;;;;;5037264;28;20386;-74
2022/05/27 03:07:59;;;;;;;7.22;3.55;;;14.90;99.90;;;;;;5019127;28;20393;-74
2022/05/27 03:10:38;;;;;;;5.03;3.30;;;14.90;99.90;;;;;;5036950;28;20030;-75
2022/05/27 03:13:26;;;;;;;4.43;3.17;;;14.80;99.90;;;;;;5036135;28;20057;-75
2022/05/27 03:16:04;;;;;;;6.32;3.30;;;14.80;99.90;;;;;;5019175;28;20049;-74
2022/05/27 03:18:47;;;;;;;5.90;3.88;;;14.80;99.90;;;;;;5018860;28;20026;-75
2022/05/27 03:21:39;;;;;;;7.18;3.70;;;14.70;99.90;;;;;;5036877;28;20049;-74
2022/05/27 03:24:20;;;;;;;6.93;3.85;;;14.70;99.90;;;;;;5036953;28;20029;-75
2022/05/27 03:26:54;;;;;;;;;;;14.60;99.90;;;;;;5019140;28;20079;-75
2022/05/27 03:29:39;;;;;;;5.03;3.33;;;14.60;99.90;;;;;;5036687;28;19913;-74
2022/05/27 03:32:17;;;;;;;7.32;3.65;;;14.50;99.90;;;;;;5036729;28;20025;-75
2022/05/27 03:34:57;;;;;;;5.75;3.95;;;14.50;99.90;;;;;;5036797;28;20021;-75
2022/05/27 03:37:30;;;;;;;8.15;3.67;;;14.40;99.90;;;;;;5018909;28;20036;-75
2022/05/27 03:40:18;;;;;;;8.32;4.20;;;14.30;99.90;;;;;;5018833;28;20089;-75
2022/05/27 03:42:44;;;;;;;6.55;3.88;;;14.20;99.90;;;;;;5018653;28;20034;-74
2022/05/27 03:45:15;;;;;;;10.70;4.75;;;14.20;99.90;;;;;;5018792;28;20490;-74
2022/05/27 03:47:43;;;;;;;5.15;3.55;;;14.10;99.90;;;;;;5019001;28;20065;-74
2022/05/27 03:50:18;;;;;;;5.22;3.75;;;14.10;99.90;;;;;;5036503;28;20045;-74
2022/05/27 03:52:47;;;;;;;7.03;3.78;;;14.10;99.90;;;;;;5036754;28;20021;-74
2022/05/27 03:55:16;;;;;;;5.53;4.13;;;14.00;99.90;;;;;;5036464;28;20021;-74
2022/05/27 03:57:42;;;;;;;7.50;4.10;;;14.00;99.90;;;;;;5036302;28;20478;-74
2022/05/27 04:00:10;;;;;;;5.35;3.83;;;14.00;99.90;;;;;;5018691;28;20029;-75
2022/05/27 04:02:36;;;;;;;7.35;4.28;;;14.00;99.90;;;;;;5036553;28;20381;-74
2022/05/27 04:05:04;;;;;;;9.80;4.50;;;14.00;99.90;;;;;;5018788;28;20029;-74
2022/05/27 04:07:30;;;;;;;10.38;4.60;;;14.10;99.90;;;;;;5036420;28;20021;-74
2022/05/27 04:09:55;;;;;;;7.57;3.70;;;14.20;99.90;;;;;;5018668;28;20033;-74
2022/05/27 04:12:22;;;;;;;6.85;3.85;;;14.30;99.90;;;;;;5036182;28;20022;-74
2022/05/27 04:14:51;;;;;;;7.65;3.70;;;14.30;99.90;;;;;;5036346;28;20025;-74
2022/05/27 04:17:32;;;;;;;7.28;4.47;;;14.30;99.90;;;;;;5036433;28;20389;-74
2022/05/27 04:20:04;;;;;;;10.82;4.05;;;14.30;99.90;;;;;;5036410;28;20022;-75
2022/05/27 04:22:30;;;;;;;5.95;3.88;;;14.30;99.90;;;;;;5036248;28;20033;-74
2022/05/27 04:24:58;;;;;;;8.35;3.95;;;14.30;99.90;;;;;;5020172;28;20022;-75
2022/05/27 04:27:25;;;;;;;7.25;4.60;;;14.30;99.90;;;;;;5021735;28;20116;-74
2022/05/27 04:29:52;;;;;;;8.57;3.90;;;14.30;99.90;;;;;;5039723;28;20025;-73
2022/05/27 04:32:21;;;;;;;13.30;4.43;;;14.30;99.90;;;;;;5039659;28;20110;-75
2022/05/27 04:34:48;;;;;;;6.10;4.18;;;14.30;99.90;;;;;;5039735;28;20017;-75
2022/05/27 04:37:14;;;;;;;7.72;3.97;;;14.30;99.90;;;;;;5039586;28;20021;-74
2022/05/27 04:39:41;;;;;;;9.40;4.15;;;14.30;99.90;;;;;;5021795;28;20030;-75
2022/05/27 04:42:07;;;;;;;6.03;4.00;;;14.30;99.90;;;;;;5021463;28;20037;-74
2022/05/27 04:44:33;;;;;;;7.60;4.82;;;14.30;99.90;;;;;;5021626;28;20036;-74
2022/05/27 04:47:00;;;;;;;5.07;4.15;;;14.30;99.90;;;;;;5039210;28;20564;-74
2022/05/27 04:52:10;;;;;;;14.25;4.35;;;14.40;99.90;;;;;;5039654;28;20035;-74
2022/05/27 04:54:36;;;;;;;7.50;4.20;;;14.40;99.90;;;;;;5039493;28;20049;-74
2022/05/27 04:57:02;;;;;;;6.63;4.05;;;14.50;99.90;;;;;;5039044;28;20021;-75
2022/05/27 04:59:28;;;;;;;4.15;3.75;;;14.60;99.90;;;;;;5039065;28;20029;-74
2022/05/27 05:01:54;;;;;;;5.95;3.92;;;14.60;99.90;;;;;;5039316;28;20559;-74
2022/05/27 05:04:20;;;;;;;10.30;4.68;;;14.60;99.90;;;;;;5039231;28;20033;-75
2022/05/27 05:06:46;;;;;;;11.13;4.40;;;14.60;99.90;;;;;;5039143;28;20053;-74
2022/05/27 05:09:12;;;;;;;9.15;3.95;;;14.60;99.90;;;;;;5021156;28;20044;-74
2022/05/27 05:11:38;;;;;;;9.57;4.00;;;14.60;99.90;;;;;;5038871;28;20595;-75
2022/05/27 05:14:04;;;;;;;4.18;3.53;;;14.60;99.90;;;;;;5038999;28;20077;-74
2022/05/27 05:16:30;;;;;;;9.88;4.47;;;14.60;99.90;;;;;;5021096;28;20596;-74
2022/05/27 05:18:56;;;;;;;8.48;3.80;;;14.60;99.90;;;;;;5038899;28;20022;-74
2022/05/27 05:21:22;;;;;;;5.30;4.00;;;14.60;99.90;;;;;;5039009;28;20486;-74
2022/05/27 05:23:48;;;;;;;8.73;4.03;;;14.60;99.90;;;;;;5020861;28;20177;-74
2022/05/27 05:26:13;;;;;;;8.73;3.97;;;14.60;99.90;;;;;;5038903;28;20458;-73
2022/05/27 05:28:39;;;;;;;11.85;3.95;;;14.60;99.90;;;;;;5038648;28;20072;-74
2022/05/27 05:31:07;;;;;;;8.43;4.25;;;14.60;99.90;;;;;;5038701;28;20025;-74
2022/05/27 05:33:33;;;;;;;8.38;3.85;;;14.60;99.90;;;;;;5038749;28;20026;-74
2022/05/27 05:35:59;;;;;;;8.23;3.78;;;14.60;99.90;;;;;;5018602;28;20026;-74
2022/05/27 05:38:26;;;;;;;11.05;3.78;;;14.60;99.90;;;;;;5020553;28;20029;-73
2022/05/27 05:40:52;;;;;;;6.68;3.92;;;14.60;99.90;;;;;;5019710;28;20414;-74
2022/05/27 05:43:18;;;;;;;6.20;4.60;;;14.60;99.90;;;;;;5020526;28;20057;-74
2022/05/27 05:45:44;;;;;;;6.05;4.00;;;14.60;99.90;;;;;;5038368;28;20087;-74
2022/05/27 05:48:10;;;;;;;9.07;4.00;;;14.70;99.90;;;;;;5020217;28;20056;-74
2022/05/27 05:50:35;;;;;;;9.38;4.20;;;14.80;99.90;;;;;;5020457;28;20034;-74
2022/05/27 05:53:01;;;;;;;8.63;4.25;;;15.00;99.90;;;;;;5020648;28;20029;-74
2022/05/27 05:55:27;;;;;;;6.50;4.13;;;15.20;99.90;;;;;;5038290;28;20030;-74
2022/05/27 05:57:53;;;;;;;10.32;4.18;;;15.40;99.90;;;;;;5020053;28;20076;-74
2022/05/27 06:00:23;;;;;;;8.38;4.07;;;15.50;99.90;;;;;;5038168;28;20036;-74
2022/05/27 06:02:49;;;;;;;8.93;4.15;;;15.60;99.90;;;;;;5038030;28;20497;-75
2022/05/27 06:05:15;;;;;;;9.27;3.70;;;15.60;99.90;;;;;;5038120;28;20029;-74
2022/05/27 06:07:41;;;;;;;6.30;3.58;;;15.60;99.90;;;;;;5037890;28;20736;-75
2022/05/27 06:10:09;;;;;;;10.88;4.00;;;15.60;99.90;;;;;;5038012;28;20112;-75
2022/05/27 06:12:37;;;;;;;13.13;4.40;;;15.60;99.90;;;;;;5036464;28;20026;-76
2022/05/27 06:15:07;;;;;;;8.20;4.55;;;15.60;99.90;;;;;;5026200;28;20026;-75
2022/05/27 06:17:35;;;;;;;9.38;3.53;;;15.60;99.90;;;;;;5017422;28;20450;-76
2022/05/27 06:20:02;;;;;;;8.77;4.55;;;15.70;99.90;;;;;;5033114;28;20033;-76
2022/05/27 06:22:28;;;;;;;5.18;3.67;;;15.80;99.90;;;;;;5019887;28;20053;-76
2022/05/27 06:24:54;;;;;;;6.90;3.80;;;16.00;99.90;;;;;;5037805;28;20064;-76
2022/05/27 06:27:19;;;;;;;6.43;3.50;;;16.10;99.90;;;;;;5037318;28;20144;-75
2022/05/27 06:35:14;;;;;;;8.88;4.38;;;16.30;99.90;;;;;;5037485;28;20027;-75
2022/05/27 06:37:40;;;;;;;7.88;4.28;;;16.40;99.90;;;;;;5037587;28;20085;-76
2022/05/27 06:40:07;;;;;;;7.30;4.28;;;16.40;99.90;;;;;;5037389;28;20022;-75
2022/05/27 06:42:33;;;;;;;5.47;3.47;;;16.40;99.90;;;;;;5036103;28;20025;-75
2022/05/27 06:44:58;;;;;;;6.78;3.95;;;16.40;99.90;;;;;;5019658;28;20029;-76
2022/05/27 06:47:24;;;;;;;8.02;4.03;;;16.50;99.90;;;;;;5036455;28;20418;-76
2022/05/27 06:49:51;;;;;;;8.85;4.03;;;16.60;99.90;;;;;;5037112;28;20029;-77
2022/05/27 06:52:17;;;;;;;9.32;3.45;;;16.60;99.90;;;;;;5037360;28;20036;-76
2022/05/27 06:54:43;;;;;;;8.73;4.22;;;16.70;99.90;;;;;;5019278;28;20022;-76
2022/05/27 06:57:09;;;;;;;9.15;3.45;;;16.70;99.90;;;;;;5019159;28;20025;-76
2022/05/27 06:59:36;;;;;;;4.95;3.70;;;16.90;99.90;;;;;;5019197;28;20026;-75
2022/05/27 07:02:02;;;;;;;8.90;4.28;;;16.90;99.90;;;;;;5037279;28;20098;-75
2022/05/27 07:04:28;;;;;;;9.35;3.38;;;17.00;99.90;;;;;;5036920;28;20029;-74
2022/05/27 07:06:54;;;;;;;7.43;4.03;;;17.20;99.90;;;;;;5037021;28;20032;-75
2022/05/27 07:09:21;;;;;;;6.80;3.22;;;17.20;99.90;;;;;;5036815;28;20400;-75
2022/05/27 07:11:50;;;;;;;6.35;3.30;;;17.30;99.90;;;;;;5036807;28;20025;-75
2022/05/27 07:14:16;;;;;;;9.15;3.55;;;17.40;99.90;;;;;;5036693;28;20068;-75
2022/05/27 07:16:43;;;;;;;8.68;3.30;;;17.50;99.90;;;;;;5036803;28;20446;-75
2022/05/27 07:19:09;;;;;;;5.63;3.42;;;17.50;99.90;;;;;;5036756;28;20038;-74
2022/05/27 07:21:40;;;;;;;6.07;3.50;;;17.60;99.90;;;;;;5036895;28;20013;-75
2022/05/27 07:24:09;;;;;;;6.95;3.38;;;17.70;99.90;;;;;;5036848;28;20030;-75
2022/05/27 07:26:36;;;;;;;5.82;3.38;;;17.90;99.90;;;;;;5036682;28;20121;-75
2022/05/27 07:29:03;;;;;;;5.50;2.95;;;18.00;99.90;;;;;;5018841;28;20033;-75
2022/05/27 07:31:29;;;;;;;8.48;3.20;;;18.10;99.90;;;;;;5017108;28;20065;-75
2022/05/27 07:33:56;;;;;;;6.60;3.53;;;18.20;99.90;;;;;;5028897;28;20026;-78
2022/05/27 07:36:22;;;;;;;7.32;3.03;;;18.20;99.90;;;;;;5021703;28;20060;-75
2022/05/27 07:38:51;;;;;;;9.40;3.50;;;18.20;99.90;;;;;;5003592;28;20142;-75
2022/05/27 07:41:18;;;;;;;5.65;2.95;;;18.30;99.90;;;;;;5025040;28;20026;-76
2022/05/27 07:43:44;;;;;;;9.50;3.80;;;18.40;99.90;;;;;;5021953;28;20017;-75
2022/05/27 07:46:12;;;;;;;4.72;3.08;;;18.60;99.90;;;;;;5025814;28;20466;-77
2022/05/27 07:48:38;;;;;;;8.88;3.83;;;18.50;99.90;;;;;;5020610;28;20096;-76
2022/05/27 07:51:04;;;;;;;6.25;3.15;;;18.40;99.90;;;;;;5028667;28;20104;-76
2022/05/27 07:53:31;;;;;;;6.45;3.10;;;18.40;99.90;;;;;;5019198;28;20044;-76
2022/05/27 07:55:56;;;;;;;6.75;3.35;;;18.40;99.90;;;;;;5035287;28;20033;-76
2022/05/27 07:58:22;;;;;;;7.25;3.67;;;18.40;99.90;;;;;;5037312;28;20096;-76
2022/05/27 08:00:49;;;;;;;7.38;3.65;;;18.40;99.90;;;;;;5040638;28;20100;-75
2022/05/27 08:03:18;;;;;;;5.03;3.08;;;18.40;99.90;;;;;;5039005;28;20033;-76
2022/05/27 08:05:44;;;;;;;5.53;3.22;;;18.40;99.90;;;;;;5040340;28;20406;-76
2022/05/27 08:08:11;;;;;;;6.55;2.67;;;18.50;99.90;;;;;;5040183;28;20497;-75
2022/05/27 08:10:38;;;;;;;9.88;3.85;;;18.60;99.90;;;;;;5040232;28;20033;-76
2022/05/27 08:13:04;;;;;;;9.63;3.72;;;18.70;99.90;;;;;;5038665;28;20498;-76
2022/05/27 08:15:31;;;;;;;4.70;3.22;;;18.70;99.90;;;;;;5040133;28;20501;-75
2022/05/27 08:17:57;;;;;;;5.95;3.50;;;18.70;99.90;;;;;;5040069;28;20486;-76
2022/05/27 08:20:26;;;;;;;6.60;2.90;;;18.80;99.90;;;;;;5040150;28;20398;-75
2022/05/27 08:22:53;;;;;;;9.48;3.50;;;18.90;99.90;;;;;;5022018;28;20053;-75
2022/05/27 08:25:21;;;;;;;4.85;2.85;;;19.00;99.90;;;;;;5022197;28;20037;-75
2022/05/27 08:27:47;;;;;;;4.35;2.72;;;19.10;99.90;;;;;;5021840;28;20025;-76
2022/05/27 08:30:20;;;;;;;4.68;2.92;;;19.30;99.90;;;;;;5039658;28;20037;-74
2022/05/27 08:32:47;;;;;;;7.22;3.28;;;19.30;99.90;;;;;;5039957;28;20065;-74
2022/05/27 08:38:07;;;;;;;9.52;3.17;;;19.50;99.90;;;;;;5040157;28;20080;-74
2022/05/27 08:40:56;;;;;;;12.52;3.25;;;19.50;99.90;;;;;;5039587;28;20025;-74
2022/05/27 08:44:00;;;;;;;6.72;2.75;;;19.50;99.90;;;;;;5021977;28;20025;-74
2022/05/27 08:46:56;;;;;;;11.07;4.10;;;19.70;99.90;;;;;;5015594;28;20059;-72
2022/05/27 08:49:30;;;;;;;7.53;2.63;;;19.80;99.90;;;;;;5039549;28;20112;-75
2022/05/27 08:52:23;;;;;;;7.28;2.78;;;19.80;99.90;;;;;;5021765;28;20112;-74
2022/05/27 08:54:55;;;;;;;6.32;2.40;;;20.00;99.90;;;;;;5021530;28;20044;-73
2022/05/27 09:00:15;;;;;;;5.88;2.13;;;20.40;99.90;;;;;;5039344;28;20032;-73
2022/05/27 09:02:56;;;;;;;7.53;2.78;;;20.20;99.90;;;;;;5021456;28;20033;-73
2022/05/27 09:05:45;;;;;;;8.65;2.92;;;20.20;99.90;;;;;;5021595;28;20501;-74
2022/05/27 09:08:21;;;;;;;5.75;2.33;;;20.30;99.90;;;;;;5004367;28;20038;-74
2022/05/27 09:10:56;;;;;;;4.35;1.88;;;20.60;99.90;;;;;;5020035;28;20103;-73
2022/05/27 09:13:40;;;;;;;5.35;1.92;;;20.80;99.90;;;;;;5039147;28;20119;-75
2022/05/27 09:16:25;;;;;;;5.47;2.60;;;20.90;99.90;;;;;;5021170;28;20390;-74
2022/05/27 09:19:16;;;;;;;4.85;2.17;;;21.00;99.90;;;;;;5038957;28;20053;-74
2022/05/27 09:22:03;;;;;;;3.10;1.77;;;20.90;99.90;;;;;;5039075;28;20022;-74
2022/05/27 09:25:08;;;;;;;4.40;2.42;;;20.60;99.90;;;;;;5038771;28;20032;-74
2022/05/27 09:28:03;;;;;;;4.53;2.15;;;20.50;99.90;;;;;;4979147;28;20375;-74
2022/05/27 09:30:33;;;;;;;6.78;2.33;;;20.80;99.90;;;;;;5038483;28;20513;-74
2022/05/27 09:33:03;;;;;;;2.97;1.90;;;21.20;99.90;;;;;;5038864;28;20022;-74
2022/05/27 09:35:50;;;;;;;8.23;2.00;;;21.30;99.90;;;;;;5037306;28;20045;-74
2022/05/27 09:38:24;;;;;;;5.32;2.47;;;21.10;99.90;;;;;;5020888;28;20022;-75
2022/05/27 09:41:02;;;;;;;6.18;2.72;;;21.10;99.90;;;;;;5008516;28;20037;-74
2022/05/27 09:43:39;;;;;;;9.40;2.10;;;21.00;99.90;;;;;;5038501;28;20014;-74
2022/05/27 09:46:12;;;;;;;4.40;1.90;;;21.00;99.90;;;;;;5038254;28;20032;-75
2022/05/27 09:48:38;;;;;;;4.10;2.00;;;21.00;99.90;;;;;;5038143;28;20026;-75
2022/05/27 09:51:07;;;;;;;4.50;1.50;;;21.00;99.90;;;;;;5020365;28;20025;-75
2022/05/27 09:53:41;;;;;;;4.97;2.13;;;21.60;99.90;;;;;;5038010;28;20017;-75
2022/05/27 09:56:11;;;;;;;4.32;2.15;;;22.00;99.90;;;;;;5020013;28;20390;-73
2022/05/27 09:58:44;;;;;;;2.72;1.80;;;21.80;99.90;;;;;;5038305;28;20025;-75
2022/05/27 10:01:21;;;;;;;5.13;1.52;;;21.60;99.90;;;;;;5037981;28;20032;-75
2022/05/27 10:04:02;;;;;;;15.10;1.98;;;21.40;99.90;;;;;;5038168;28;20021;-74
2022/05/27 10:06:30;;;;;;;5.15;2.42;;;21.20;99.90;;;;;;5020148;28;20045;-74
2022/05/27 10:08:59;;;;;;;3.33;1.65;;;21.10;99.90;;;;;;5037940;28;20029;-73
2022/05/27 10:12:00;;;;;;;5.25;2.30;;;21.20;99.90;;;;;;5019786;28;20022;-74
2022/05/27 10:14:29;;;;;;;7.80;2.42;;;21.50;99.90;;;;;;4977998;28;20033;-73
2022/05/27 10:17:11;;;;;;;5.15;1.85;;;21.90;99.90;;;;;;5019939;28;20061;-73
2022/05/27 10:19:42;;;;;;;7.68;1.95;;;21.90;99.90;;;;;;5036874;28;20029;-76
2022/05/27 10:22:20;;;;;;;6.70;1.90;;;21.90;99.90;;;;;;5019973;28;20034;-75
2022/05/27 10:25:06;;;;;;;5.25;1.80;;;21.80;99.90;;;;;;5019926;28;20437;-75
2022/05/27 10:27:51;;;;;;;4.13;1.85;;;21.60;99.90;;;;;;5037482;28;20030;-74
2022/05/27 10:30:53;;;;;;;4.53;1.75;;;21.60;99.90;;;;;;5037486;28;20028;-75
2022/05/27 10:33:35;;;;;;;4.90;1.88;;;21.60;99.90;;;;;;5004016;28;20047;-73
2022/05/27 10:36:01;;;;;;;3.83;1.73;;;21.80;99.90;;;;;;5037546;28;20032;-74
2022/05/27 10:38:47;;;;;;;2.40;1.95;;;21.90;99.90;;;;;;5037483;28;20026;-74
2022/05/27 10:41:34;;;;;;;5.97;2.17;;;22.00;99.90;;;;;;5019914;28;20401;-75
2022/05/27 10:44:40;;;;;;;3.30;2.05;;;21.90;99.90;;;;;;5035267;28;20026;-74
2022/05/27 10:47:17;;;;;;;11.52;2.38;;;21.80;99.90;;;;;;5036997;28;20124;-73
2022/05/27 10:49:55;;;;;;;6.07;2.20;;;22.10;99.90;;;;;;5037188;28;20033;-75
2022/05/27 10:52:22;;;;;;;4.18;1.90;;;22.20;99.90;;;;;;5019600;28;20042;-74
2022/05/27 10:55:13;;;;;;;5.25;2.33;;;22.40;99.90;;;;;;5037225;28;20544;-73
2022/05/27 11:04:34;;;;;;;5.72;1.70;;;22.80;99.90;;;;;;5037357;28;20107;-73
2022/05/27 11:07:06;;;;;;;2.90;1.85;;;22.40;99.90;;;;;;5016568;28;20673;-74
2022/05/27 11:09:35;;;;;;;4.93;1.92;;;22.10;99.90;;;;;;5037091;28;20026;-74
2022/05/27 11:12:25;;;;;;;3.92;1.95;;;22.30;99.90;;;;;;5036731;28;20525;-74
2022/05/27 11:15:14;;;;;;;8.48;1.80;;;22.50;99.90;;;;;;5036893;28;20466;-75
2022/05/27 11:18:04;;;;;;;4.93;1.63;;;22.40;99.90;;;;;;5036895;28;20045;-73
2022/05/27 11:21:07;;;;;;;5.47;2.23;;;22.30;99.90;;;;;;5019149;28;20493;-73
2022/05/27 11:23:49;;;;;;;5.60;1.60;;;22.20;99.90;;;;;;5021433;28;20038;-75
2022/05/27 11:26:26;;;;;;;4.55;1.58;;;22.20;99.90;;;;;;5018915;28;20022;-73
2022/05/27 11:29:09;;;;;;;4.00;1.80;;;22.10;99.90;;;;;;5018839;28;20026;-73
2022/05/27 11:31:55;;;;;;;5.22;2.38;;;22.10;99.90;;;;;;5037262;28;20017;-74
2022/05/27 11:34:51;;;;;;;4.65;2.13;;;22.40;99.90;;;;;;5020849;28;20028;-73
2022/05/27 11:37:55;;;;;;;6.10;1.75;;;22.70;99.90;;;;;;5040872;28;20494;-74
2022/05/27 11:40:46;;;;;;;3.80;1.42;;;22.80;99.90;;;;;;5039255;28;20398;-74
2022/05/27 11:43:27;;;;;;;2.83;1.33;;;23.00;99.90;;;;;;5022443;28;20021;-73
2022/05/27 11:46:22;;;;;;;4.07;1.80;;;22.80;99.90;;;;;;5022699;28;20029;-75
2022/05/27 11:48:50;;;;;;;5.22;1.98;;;22.80;99.90;;;;;;5040465;28;20037;-75
2022/05/27 11:51:30;;;;;;;7.20;1.85;;;22.70;99.90;;;;;;5022861;28;20033;-74
2022/05/27 11:54:23;;;;;;;4.57;1.50;;;22.50;99.90;;;;;;5022711;28;20026;-73
2022/05/27 11:57:22;;;;;;;3.63;1.63;;;22.70;99.90;;;;;;5040283;28;20100;-75
2022/05/27 12:00:01;;;;;;;6.00;1.55;;;23.00;99.90;;;;;;4982978;28;20053;-74
2022/05/27 12:02:27;;;;;;;6.10;1.88;;;23.60;99.90;;;;;;5040639;28;20026;-74
2022/05/27 12:05:11;;;;;;;3.78;1.73;;;23.70;99.00;;;;;;5034139;28;20037;-75
2022/05/27 12:07:55;;;;;;;9.38;2.05;;;23.60;99.50;;;;;;5040353;28;20029;-74
2022/05/27 12:10:38;;;;;;;5.13;1.95;;;23.30;99.70;;;;;;5040303;28;20026;-75
2022/05/27 12:13:25;;;;;;;4.20;1.80;;;23.00;99.70;;;;;;5040211;28;20020;-73
2022/05/27 12:16:11;;;;;;;5.70;1.88;;;22.80;99.90;;;;;;5040201;28;20032;-73
2022/05/27 12:19:03;;;;;;;7.85;2.53;;;22.90;99.90;;;;;;5031325;28;20765;-74
2022/05/27 12:21:35;;;;;;;6.47;1.20;;;23.30;99.90;;;;;;5040175;28;20026;-74
2022/05/27 12:24:24;;;;;;;6.75;1.65;;;23.60;99.40;;;;;;5022122;28;20485;-74
2022/05/27 12:26:55;;;;;;;3.50;1.90;;;23.90;98.40;;;;;;5039791;28;20155;-74
2022/05/27 12:29:23;;;;;;;3.85;1.40;;;23.80;99.00;;;;;;5039584;28;20044;-75
2022/05/27 12:31:51;;;;;;;3.20;1.45;;;23.50;98.80;;;;;;5039943;28;20496;-74
2022/05/27 12:34:29;;;;;;;7.05;1.90;;;23.40;99.50;;;;;;5022008;28;20494;-74
2022/05/27 12:37:00;;;;;;;3.25;1.30;;;23.30;98.90;;;;;;5021862;28;20037;-74
2022/05/27 12:39:30;;;;;;;2.80;1.50;;;23.40;98.00;;;;;;5022019;28;20117;-74
2022/05/27 12:42:23;;;;;;;3.65;1.50;;;23.70;98.30;;;;;;5039457;28;20041;-74
2022/05/27 12:44:49;;;;;;;4.13;1.60;;;24.10;97.80;;;;;;5038410;28;20025;-74
2022/05/27 12:47:42;;;;;;;4.55;1.30;;;23.80;97.40;;;;;;5039420;28;20056;-74
2022/05/27 12:50:20;;;;;;;3.35;1.63;;;23.40;97.80;;;;;;5035499;28;20040;-75
2022/05/27 12:52:49;;;;;;;2.67;1.50;;;23.60;98.20;;;;;;5039659;28;20029;-74
2022/05/27 13:00:55;;;;;;;4.05;1.85;;;23.90;97.60;;;;;;5039369;28;20043;-74
2022/05/27 13:01:23;;;;;;;3.55;1.30;;;24.40;96.50;;;;;;5039101;28;20036;-75
2022/05/27 13:03:50;;;;;;;;;;;24.20;97.40;;;;;;5021938;28;20445;-74
2022/05/27 13:06:36;;;;;;;2.80;1.35;;;24.10;97.40;;;;;;5039174;28;19912;-74
2022/05/27 13:09:04;;;;;;;4.63;1.83;;;23.90;96.90;;;;;;5039182;28;20041;-75
2022/05/27 13:11:39;;;;;;;2.15;1.30;;;23.80;97.30;;;;;;5038861;28;20075;-75
2022/05/27 13:14:05;;;;;;;4.75;1.33;;;23.90;97.10;;;;;;5039103;28;20109;-75
2022/05/27 13:17:06;;;;;;;3.00;1.35;;;24.00;96.50;;;;;;5021116;28;20061;-75
2022/05/27 13:19:51;;;;;;;3.42;1.35;;;24.30;97.10;;;;;;5019908;28;20025;-75
2022/05/27 13:22:49;;;;;;;7.15;1.67;;;24.40;96.80;;;;;;5038955;28;20433;-75
2022/05/27 13:25:41;;;;;;;4.88;1.35;;;24.70;95.60;;;;;;5021033;28;20179;-75
2022/05/27 13:28:31;;;;;;;7.75;1.75;;;24.70;95.20;;;;;;5039123;28;20100;-75
2022/05/27 13:31:02;;;;;;;3.40;1.70;;;24.70;96.20;;;;;;5038797;28;20029;-75
2022/05/27 13:33:34;;;;;;;1.83;1.15;;;24.80;95.60;;;;;;5020793;28;20021;-74
2022/05/27 13:36:03;;;;;;;4.88;1.20;;;24.80;95.90;;;;;;5020826;28;20027;-74
2022/05/27 13:38:38;;;;;;;4.53;1.10;;;25.00;96.00;;;;;;5038520;28;20022;-74
2022/05/27 13:41:09;;;;;;;3.00;1.55;;;24.90;95.50;;;;;;5038476;28;20072;-75
2022/05/27 13:43:41;;;;;;;5.63;1.65;;;24.70;95.30;;;;;;5020575;28;20116;-75
2022/05/27 13:46:30;;;;;;;3.72;1.30;;;24.90;96.30;;;;;;5038320;28;20025;-75
2022/05/27 13:49:16;;;;;;;5.57;1.27;;;25.30;95.00;;;;;;5020780;28;20033;-77
2022/05/27 13:51:44;;;;;;;6.45;1.52;;;25.10;94.20;;;;;;5038239;28;20029;-75
2022/05/27 13:54:19;;;;;;;2.50;1.38;;;25.00;94.60;;;;;;5020656;28;20021;-74